sensor_id;sensor_type;location;lat;lon;timestamp;pressure;altitude;pressure_sealevel;temperature;humidity
75609;BME280;64194;51.044;13.780;2022-10-17T00:03:03;101004.06;;;14.54;87.75
75609;BME280;64194;51.044;13.780;2022-10-17T00:07:05;101016.56;;;14.54;87.66
75609;BME280;64194;51.044;13.780;2022-10-17T00:11:13;101016.78;;;14.51;87.84
75609;BME280;64194;51.044;13.780;2022-10-17T00:15:20;101014.38;;;14.46;87.77
75609;BME280;64194;51.044;13.780;2022-10-17T00:19:22;101023.38;;;14.45;87.90
75609;BME280;64194;51.044;13.780;2022-10-17T00:23:24;101021.66;;;14.44;88.12
75609;BME280;64194;51.044;13.780;2022-10-17T00:27:28;101021.34;;;14.35;88.44
75609;BME280;64194;51.044;13.780;2022-10-17T00:31:30;101017.59;;;14.39;88.36
75609;BME280;64194;51.044;13.780;2022-10-17T00:35:32;101026.34;;;14.41;87.91
75609;BME280;64194;51.044;13.780;2022-10-17T00:39:33;101030.19;;;14.37;88.53
75609;BME280;64194;51.044;13.780;2022-10-17T00:48:02;101016.31;;;14.30;88.48
75609;BME280;64194;51.044;13.780;2022-10-17T00:52:26;101016.28;;;14.17;89.25
75609;BME280;64194;51.044;13.780;2022-10-17T00:56:29;101018.22;;;14.01;88.40
75609;BME280;64194;51.044;13.780;2022-10-17T01:00:32;101023.41;;;13.90;88.39
75609;BME280;64194;51.044;13.780;2022-10-17T01:04:38;101024.94;;;13.80;88.07
75609;BME280;64194;51.044;13.780;2022-10-17T01:08:41;101025.50;;;13.85;89.67
75609;BME280;64194;51.044;13.780;2022-10-17T01:12:55;101024.72;;;13.83;89.72
75609;BME280;64194;51.044;13.780;2022-10-17T01:17:23;101030.47;;;13.77;89.92
75609;BME280;64194;51.044;13.780;2022-10-17T01:21:39;101025.13;;;13.63;89.23
75609;BME280;64194;51.044;13.780;2022-10-17T01:26:13;101024.56;;;13.58;89.34
75609;BME280;64194;51.044;13.780;2022-10-17T01:34:56;101010.06;;;13.62;90.26
75609;BME280;64194;51.044;13.780;2022-10-17T01:39:06;101011.28;;;13.70;90.42
75609;BME280;64194;51.044;13.780;2022-10-17T01:43:20;101015.97;;;13.67;90.88
75609;BME280;64194;51.044;13.780;2022-10-17T01:47:31;101017.41;;;13.72;90.58
75609;BME280;64194;51.044;13.780;2022-10-17T01:52:03;101017.75;;;13.80;90.80
75609;BME280;64194;51.044;13.780;2022-10-17T01:56:08;101028.00;;;13.74;91.04
75609;BME280;64194;51.044;13.780;2022-10-17T02:00:18;101023.69;;;13.71;91.09
75609;BME280;64194;51.044;13.780;2022-10-17T02:04:24;101021.97;;;13.85;90.74
75609;BME280;64194;51.044;13.780;2022-10-17T02:08:29;101014.44;;;13.77;91.03
75609;BME280;64194;51.044;13.780;2022-10-17T02:12:53;101006.81;;;13.85;91.36
75609;BME280;64194;51.044;13.780;2022-10-17T02:17:13;101004.16;;;13.85;91.06
75609;BME280;64194;51.044;13.780;2022-10-17T02:21:43;101003.47;;;13.81;91.10
75609;BME280;64194;51.044;13.780;2022-10-17T02:29:59;101013.75;;;13.88;90.78
75609;BME280;64194;51.044;13.780;2022-10-17T02:34:13;101003.38;;;13.83;91.13
75609;BME280;64194;51.044;13.780;2022-10-17T02:38:21;100998.91;;;13.83;90.89
75609;BME280;64194;51.044;13.780;2022-10-17T02:42:26;101004.88;;;13.87;90.71
75609;BME280;64194;51.044;13.780;2022-10-17T02:46:31;101007.06;;;13.95;90.72
75609;BME280;64194;51.044;13.780;2022-10-17T02:51:00;101010.59;;;13.95;90.58
75609;BME280;64194;51.044;13.780;2022-10-17T02:55:17;101015.66;;;14.00;90.20
75609;BME280;64194;51.044;13.780;2022-10-17T02:59:21;101019.47;;;13.96;90.42
75609;BME280;64194;51.044;13.780;2022-10-17T03:03:27;101016.44;;;13.88;90.33
75609;BME280;64194;51.044;13.780;2022-10-17T03:07:34;101016.91;;;13.94;90.57
75609;BME280;64194;51.044;13.780;2022-10-17T03:11:35;101017.28;;;13.88;90.62
75609;BME280;64194;51.044;13.780;2022-10-17T03:15:37;101015.38;;;13.90;90.73
75609;BME280;64194;51.044;13.780;2022-10-17T03:19:39;101011.34;;;13.97;90.19
75609;BME280;64194;51.044;13.780;2022-10-17T03:23:42;101011.56;;;13.94;90.32
75609;BME280;64194;51.044;13.780;2022-10-17T03:27:44;101010.31;;;13.86;90.21
75609;BME280;64194;51.044;13.780;2022-10-17T03:31:46;101019.19;;;13.86;90.31
75609;BME280;64194;51.044;13.780;2022-10-17T03:35:48;101028.34;;;13.82;90.46
75609;BME280;64194;51.044;13.780;2022-10-17T03:39:51;101027.41;;;13.83;90.61
75609;BME280;64194;51.044;13.780;2022-10-17T03:43:53;101028.91;;;13.87;90.64
75609;BME280;64194;51.044;13.780;2022-10-17T03:47:57;101029.88;;;13.86;90.42
75609;BME280;64194;51.044;13.780;2022-10-17T03:51:59;101021.97;;;13.85;90.43
75609;BME280;64194;51.044;13.780;2022-10-17T04:00:25;101040.53;;;14.00;90.39
75609;BME280;64194;51.044;13.780;2022-10-17T04:04:30;101038.91;;;13.98;90.04
75609;BME280;64194;51.044;13.780;2022-10-17T04:08:33;101038.06;;;13.97;89.93
75609;BME280;64194;51.044;13.780;2022-10-17T04:12:41;101054.28;;;13.94;90.12
75609;BME280;64194;51.044;13.780;2022-10-17T04:16:43;101045.31;;;13.95;90.25
75609;BME280;64194;51.044;13.780;2022-10-17T04:20:50;101052.56;;;13.93;90.15
75609;BME280;64194;51.044;13.780;2022-10-17T04:24:53;101056.88;;;13.96;90.02
75609;BME280;64194;51.044;13.780;2022-10-17T04:29:14;101055.63;;;14.01;89.85
75609;BME280;64194;51.044;13.780;2022-10-17T04:33:18;101063.50;;;14.03;89.88
75609;BME280;64194;51.044;13.780;2022-10-17T04:37:20;101064.75;;;14.11;89.37
75609;BME280;64194;51.044;13.780;2022-10-17T04:41:23;101057.47;;;14.13;89.21
75609;BME280;64194;51.044;13.780;2022-10-17T04:45:26;101063.22;;;14.21;88.75
75609;BME280;64194;51.044;13.780;2022-10-17T04:49:32;101069.13;;;14.27;88.62
75609;BME280;64194;51.044;13.780;2022-10-17T04:53:42;101075.06;;;14.17;89.00
75609;BME280;64194;51.044;13.780;2022-10-17T04:57:45;101079.25;;;14.21;88.74
75609;BME280;64194;51.044;13.780;2022-10-17T05:01:52;101077.22;;;14.25;88.41
75609;BME280;64194;51.044;13.780;2022-10-17T05:05:54;101079.31;;;14.20;88.84
75609;BME280;64194;51.044;13.780;2022-10-17T05:09:56;101080.28;;;14.19;88.68
75609;BME280;64194;51.044;13.780;2022-10-17T05:14:01;101088.84;;;14.24;88.25
75609;BME280;64194;51.044;13.780;2022-10-17T05:18:08;101084.88;;;14.17;88.47
75609;BME280;64194;51.044;13.780;2022-10-17T05:22:10;101093.75;;;14.17;88.78
75609;BME280;64194;51.044;13.780;2022-10-17T05:26:13;101092.41;;;14.10;88.59
75609;BME280;64194;51.044;13.780;2022-10-17T05:30:15;101094.31;;;14.08;88.61
75609;BME280;64194;51.044;13.780;2022-10-17T05:34:17;101107.78;;;14.21;88.00
75609;BME280;64194;51.044;13.780;2022-10-17T05:38:19;101099.09;;;14.17;88.12
75609;BME280;64194;51.044;13.780;2022-10-17T05:42:23;101106.13;;;14.18;87.93
75609;BME280;64194;51.044;13.780;2022-10-17T05:46:25;101116.91;;;14.31;87.11
75609;BME280;64194;51.044;13.780;2022-10-17T05:50:27;101118.34;;;14.51;86.44
75609;BME280;64194;51.044;13.780;2022-10-17T05:54:43;101121.59;;;14.56;85.97
75609;BME280;64194;51.044;13.780;2022-10-17T05:58:46;101127.44;;;14.75;85.52
75609;BME280;64194;51.044;13.780;2022-10-17T06:03:24;101122.28;;;14.99;83.77
75609;BME280;64194;51.044;13.780;2022-10-17T06:07:27;101119.84;;;15.08;83.36
75609;BME280;64194;51.044;13.780;2022-10-17T06:11:29;101123.75;;;15.30;82.42
75609;BME280;64194;51.044;13.780;2022-10-17T06:15:34;101134.22;;;15.33;82.09
75609;BME280;64194;51.044;13.780;2022-10-17T06:19:39;101129.41;;;15.52;81.39
75609;BME280;64194;51.044;13.780;2022-10-17T06:23:42;101132.09;;;15.65;80.75
75609;BME280;64194;51.044;13.780;2022-10-17T06:27:55;101141.41;;;15.84;79.58
75609;BME280;64194;51.044;13.780;2022-10-17T06:31:56;101154.69;;;15.86;79.79
75609;BME280;64194;51.044;13.780;2022-10-17T06:35:59;101174.41;;;16.10;78.59
75609;BME280;64194;51.044;13.780;2022-10-17T06:40:04;101165.41;;;16.24;78.14
75609;BME280;64194;51.044;13.780;2022-10-17T06:44:08;101161.28;;;16.31;77.54
75609;BME280;64194;51.044;13.780;2022-10-17T06:48:22;101175.63;;;16.55;76.52
75609;BME280;64194;51.044;13.780;2022-10-17T06:52:42;101177.16;;;16.59;76.52
75609;BME280;64194;51.044;13.780;2022-10-17T06:57:03;101179.44;;;16.89;75.30
75609;BME280;64194;51.044;13.780;2022-10-17T07:01:17;101193.09;;;17.34;73.30
75609;BME280;64194;51.044;13.780;2022-10-17T07:05:20;101193.28;;;17.54;72.39
75609;BME280;64194;51.044;13.780;2022-10-17T07:09:23;101193.25;;;17.67;72.15
75609;BME280;64194;51.044;13.780;2022-10-17T07:13:25;101194.41;;;18.09;70.34
75609;BME280;64194;51.044;13.780;2022-10-17T07:17:27;101216.19;;;18.28;69.86
75609;BME280;64194;51.044;13.780;2022-10-17T07:21:29;101205.81;;;18.57;68.46
75609;BME280;64194;51.044;13.780;2022-10-17T07:25:35;101202.88;;;18.71;67.99
75609;BME280;64194;51.044;13.780;2022-10-17T07:29:42;101208.34;;;19.03;66.73
75609;BME280;64194;51.044;13.780;2022-10-17T07:33:52;101215.22;;;19.28;65.42
75609;BME280;64194;51.044;13.780;2022-10-17T07:37:54;101209.66;;;19.52;64.59
75609;BME280;64194;51.044;13.780;2022-10-17T07:41:56;101207.00;;;19.73;63.79
75609;BME280;64194;51.044;13.780;2022-10-17T07:46:00;101195.19;;;20.15;62.13
75609;BME280;64194;51.044;13.780;2022-10-17T07:50:04;101210.13;;;20.80;60.26
75609;BME280;64194;51.044;13.780;2022-10-17T07:54:06;101212.91;;;21.09;59.43
75609;BME280;64194;51.044;13.780;2022-10-17T07:58:08;101221.38;;;21.54;58.18
75609;BME280;64194;51.044;13.780;2022-10-17T08:02:19;101218.75;;;22.10;56.01
75609;BME280;64194;51.044;13.780;2022-10-17T08:06:21;101223.25;;;22.38;55.06
75609;BME280;64194;51.044;13.780;2022-10-17T08:10:23;101220.59;;;22.93;53.77
75609;BME280;64194;51.044;13.780;2022-10-17T08:14:33;101215.63;;;23.33;52.46
75609;BME280;64194;51.044;13.780;2022-10-17T08:18:39;101220.34;;;23.85;51.22
75609;BME280;64194;51.044;13.780;2022-10-17T08:22:41;101207.16;;;24.33;49.65
75609;BME280;64194;51.044;13.780;2022-10-17T08:26:43;101222.41;;;24.60;48.62
75609;BME280;64194;51.044;13.780;2022-10-17T08:30:50;101227.81;;;25.36;47.34
75609;BME280;64194;51.044;13.780;2022-10-17T08:34:52;101221.50;;;25.43;46.74
75609;BME280;64194;51.044;13.780;2022-10-17T08:38:54;101229.47;;;25.29;46.59
75609;BME280;64194;51.044;13.780;2022-10-17T08:43:15;101211.13;;;25.31;47.00
75609;BME280;64194;51.044;13.780;2022-10-17T08:47:37;101222.41;;;25.60;45.99
75609;BME280;64194;51.044;13.780;2022-10-17T08:51:48;101206.41;;;24.49;49.09
75609;BME280;64194;51.044;13.780;2022-10-17T08:55:53;101215.88;;;25.29;46.74
75609;BME280;64194;51.044;13.780;2022-10-17T08:59:55;101238.00;;;25.50;45.66
75609;BME280;64194;51.044;13.780;2022-10-17T09:04:27;101221.06;;;25.72;45.47
75609;BME280;64194;51.044;13.780;2022-10-17T09:17:22;101207.84;;;27.04;41.94
75609;BME280;64194;51.044;13.780;2022-10-17T09:21:58;101217.13;;;28.09;40.07
75609;BME280;64194;51.044;13.780;2022-10-17T09:26:01;101224.66;;;29.39;37.21
75609;BME280;64194;51.044;13.780;2022-10-17T09:30:35;101223.66;;;29.68;36.72
75609;BME280;64194;51.044;13.780;2022-10-17T09:34:46;101230.81;;;30.39;35.13
75609;BME280;64194;51.044;13.780;2022-10-17T09:38:56;101207.47;;;31.38;34.01
75609;BME280;64194;51.044;13.780;2022-10-17T09:43:00;101228.34;;;32.91;31.06
75609;BME280;64194;51.044;13.780;2022-10-17T09:51:36;101216.34;;;32.59;31.00
75609;BME280;64194;51.044;13.780;2022-10-17T09:55:46;101211.13;;;31.72;32.52
75609;BME280;64194;51.044;13.780;2022-10-17T10:00:00;101209.63;;;32.42;31.42
75609;BME280;64194;51.044;13.780;2022-10-17T10:04:13;101218.59;;;33.39;29.46
75609;BME280;64194;51.044;13.780;2022-10-17T10:08:18;101215.31;;;33.17;30.12
75609;BME280;64194;51.044;13.780;2022-10-17T10:12:37;101220.25;;;33.47;29.63
75609;BME280;64194;51.044;13.780;2022-10-17T10:16:46;101217.72;;;34.26;28.63
75609;BME280;64194;51.044;13.780;2022-10-17T10:21:02;101225.72;;;35.25;26.32
75609;BME280;64194;51.044;13.780;2022-10-17T10:25:07;101213.66;;;35.80;26.07
75609;BME280;64194;51.044;13.780;2022-10-17T10:29:32;101216.16;;;35.28;26.50
75609;BME280;64194;51.044;13.780;2022-10-17T10:33:40;101215.53;;;35.56;26.51
75609;BME280;64194;51.044;13.780;2022-10-17T10:37:47;101214.41;;;36.80;24.53
75609;BME280;64194;51.044;13.780;2022-10-17T10:41:50;101226.13;;;37.39;23.61
75609;BME280;64194;51.044;13.780;2022-10-17T10:45:52;101195.78;;;36.40;25.48
75609;BME280;64194;51.044;13.780;2022-10-17T10:50:28;101207.50;;;37.34;23.67
75609;BME280;64194;51.044;13.780;2022-10-17T10:54:36;101190.53;;;38.09;23.19
75609;BME280;64194;51.044;13.780;2022-10-17T10:59:16;101194.63;;;37.73;23.21
75609;BME280;64194;51.044;13.780;2022-10-17T11:04:26;101192.78;;;35.84;25.83
75609;BME280;64194;51.044;13.780;2022-10-17T11:08:28;101200.34;;;36.81;24.15
75609;BME280;64194;51.044;13.780;2022-10-17T11:13:02;101200.69;;;38.03;22.61
75609;BME280;64194;51.044;13.780;2022-10-17T11:17:15;101204.34;;;37.59;23.51
75609;BME280;64194;51.044;13.780;2022-10-17T11:21:24;101189.19;;;37.78;23.02
75609;BME280;64194;51.044;13.780;2022-10-17T11:29:36;101186.53;;;39.52;21.53
75609;BME280;64194;51.044;13.780;2022-10-17T11:33:50;101175.78;;;38.25;22.86
75609;BME280;64194;51.044;13.780;2022-10-17T11:38:05;101169.00;;;39.25;21.84
75609;BME280;64194;51.044;13.780;2022-10-17T11:42:16;101171.81;;;39.84;21.31
75609;BME280;64194;51.044;13.780;2022-10-17T11:46:23;101165.09;;;40.17;20.60
75609;BME280;64194;51.044;13.780;2022-10-17T11:50:29;101149.78;;;39.45;21.65
75609;BME280;64194;51.044;13.780;2022-10-17T11:54:56;101135.81;;;40.61;19.88
75609;BME280;64194;51.044;13.780;2022-10-17T11:59:40;101139.13;;;40.06;20.39
75609;BME280;64194;51.044;13.780;2022-10-17T12:12:33;101114.00;;;41.25;18.81
75609;BME280;64194;51.044;13.780;2022-10-17T12:16:36;101107.88;;;40.36;20.31
75609;BME280;64194;51.044;13.780;2022-10-17T12:20:39;101109.50;;;41.04;19.64
75609;BME280;64194;51.044;13.780;2022-10-17T12:24:53;101103.56;;;40.70;20.15
75609;BME280;64194;51.044;13.780;2022-10-17T12:28:56;101086.34;;;40.99;19.88
75609;BME280;64194;51.044;13.780;2022-10-17T12:33:21;101094.47;;;41.91;19.09
75609;BME280;64194;51.044;13.780;2022-10-17T12:37:58;101108.75;;;41.54;19.16
75609;BME280;64194;51.044;13.780;2022-10-17T12:42:01;101092.50;;;41.01;19.56
75609;BME280;64194;51.044;13.780;2022-10-17T12:46:03;101081.69;;;40.32;19.83
75609;BME280;64194;51.044;13.780;2022-10-17T12:50:59;101080.16;;;40.04;20.15
75609;BME280;64194;51.044;13.780;2022-10-17T12:55:23;101072.13;;;40.90;19.10
75609;BME280;64194;51.044;13.780;2022-10-17T12:59:27;101067.19;;;41.32;19.09
75609;BME280;64194;51.044;13.780;2022-10-17T13:03:41;101074.28;;;42.30;18.27
75609;BME280;64194;51.044;13.780;2022-10-17T13:07:47;101067.94;;;42.68;17.85
75609;BME280;64194;51.044;13.780;2022-10-17T13:11:50;101055.69;;;40.78;19.29
75609;BME280;64194;51.044;13.780;2022-10-17T13:15:53;101061.00;;;40.95;18.98
75609;BME280;64194;51.044;13.780;2022-10-17T13:19:56;101068.31;;;41.62;18.97
75609;BME280;64194;51.044;13.780;2022-10-17T13:23:58;101060.97;;;40.75;19.30
75609;BME280;64194;51.044;13.780;2022-10-17T13:28:11;101057.09;;;41.01;19.11
75609;BME280;64194;51.044;13.780;2022-10-17T13:32:14;101068.88;;;39.84;20.15
75609;BME280;64194;51.044;13.780;2022-10-17T13:36:17;101059.31;;;39.69;20.51
75609;BME280;64194;51.044;13.780;2022-10-17T13:40:23;101053.09;;;38.67;21.74
75609;BME280;64194;51.044;13.780;2022-10-17T13:44:46;101059.84;;;37.22;22.99
75609;BME280;64194;51.044;13.780;2022-10-17T13:48:48;101051.88;;;35.54;25.18
75609;BME280;64194;51.044;13.780;2022-10-17T13:53:24;101048.50;;;34.02;27.40
75609;BME280;64194;51.044;13.780;2022-10-17T13:57:28;101046.56;;;33.10;29.00
75609;BME280;64194;51.044;13.780;2022-10-17T14:01:31;101049.69;;;33.20;28.72
75609;BME280;64194;51.044;13.780;2022-10-17T14:05:33;101052.63;;;33.26;28.86
75609;BME280;64194;51.044;13.780;2022-10-17T14:09:35;101054.97;;;31.82;30.54
75609;BME280;64194;51.044;13.780;2022-10-17T14:13:37;101060.03;;;31.06;32.04
75609;BME280;64194;51.044;13.780;2022-10-17T14:17:39;101074.53;;;29.91;34.45
75609;BME280;64194;51.044;13.780;2022-10-17T14:21:41;101059.63;;;29.02;36.09
75609;BME280;64194;51.044;13.780;2022-10-17T14:26:13;101054.63;;;27.61;38.28
75609;BME280;64194;51.044;13.780;2022-10-17T14:40:59;101061.56;;;24.90;44.27
75609;BME280;64194;51.044;13.780;2022-10-17T14:45:31;101065.09;;;24.25;46.33
75609;BME280;64194;51.044;13.780;2022-10-17T14:49:39;101061.28;;;24.09;47.07
75609;BME280;64194;51.044;13.780;2022-10-17T14:54:25;101067.53;;;23.76;47.96
75609;BME280;64194;51.044;13.780;2022-10-17T14:58:30;101079.63;;;23.56;48.89
75609;BME280;64194;51.044;13.780;2022-10-17T15:03:02;101080.34;;;23.05;50.65
75609;BME280;64194;51.044;13.780;2022-10-17T15:07:04;101080.72;;;22.92;51.03
75609;BME280;64194;51.044;13.780;2022-10-17T15:11:40;101085.97;;;22.76;51.54
75609;BME280;64194;51.044;13.780;2022-10-17T15:15:42;101093.81;;;22.51;52.22
75609;BME280;64194;51.044;13.780;2022-10-17T15:20:18;101087.25;;;22.27;53.26
75609;BME280;64194;51.044;13.780;2022-10-17T15:24:20;101093.13;;;22.22;52.84
75609;BME280;64194;51.044;13.780;2022-10-17T15:33:44;101110.59;;;21.91;53.83
75609;BME280;64194;51.044;13.780;2022-10-17T15:37:50;101105.91;;;21.83;54.25
75609;BME280;64194;51.044;13.780;2022-10-17T15:41:52;101108.13;;;21.51;54.60
75609;BME280;64194;51.044;13.780;2022-10-17T15:45:54;101123.78;;;21.28;55.21
75609;BME280;64194;51.044;13.780;2022-10-17T15:49:55;101126.06;;;21.23;55.43
75609;BME280;64194;51.044;13.780;2022-10-17T15:54:03;101125.19;;;21.03;56.21
75609;BME280;64194;51.044;13.780;2022-10-17T15:58:12;101128.13;;;20.81;57.19
75609;BME280;64194;51.044;13.780;2022-10-17T16:02:17;101128.13;;;20.62;57.96
75609;BME280;64194;51.044;13.780;2022-10-17T16:06:20;101127.63;;;20.47;58.15
75609;BME280;64194;51.044;13.780;2022-10-17T16:10:23;101126.75;;;20.37;59.02
75609;BME280;64194;51.044;13.780;2022-10-17T16:14:26;101122.50;;;20.14;59.44
75609;BME280;64194;51.044;13.780;2022-10-17T16:18:28;101118.66;;;20.07;60.03
75609;BME280;64194;51.044;13.780;2022-10-17T16:22:32;101119.44;;;19.97;60.45
75609;BME280;64194;51.044;13.780;2022-10-17T16:26:38;101131.66;;;19.71;61.05
75609;BME280;64194;51.044;13.780;2022-10-17T16:30:42;101138.28;;;19.67;61.24
75609;BME280;64194;51.044;13.780;2022-10-17T16:34:45;101146.44;;;19.56;61.78
75609;BME280;64194;51.044;13.780;2022-10-17T16:38:47;101134.75;;;19.46;62.07
75609;BME280;64194;51.044;13.780;2022-10-17T16:42:50;101145.72;;;19.54;61.62
75609;BME280;64194;51.044;13.780;2022-10-17T16:46:52;101146.00;;;19.40;62.36
75609;BME280;64194;51.044;13.780;2022-10-17T16:50:53;101141.88;;;19.36;62.24
75609;BME280;64194;51.044;13.780;2022-10-17T16:55:04;101149.16;;;19.24;62.75
75609;BME280;64194;51.044;13.780;2022-10-17T16:59:06;101141.00;;;19.14;62.89
75609;BME280;64194;51.044;13.780;2022-10-17T17:03:07;101152.63;;;19.04;63.50
75609;BME280;64194;51.044;13.780;2022-10-17T17:07:09;101148.06;;;19.15;63.38
75609;BME280;64194;51.044;13.780;2022-10-17T17:11:13;101149.72;;;18.96;64.49
75609;BME280;64194;51.044;13.780;2022-10-17T17:15:15;101163.09;;;18.86;64.91
75609;BME280;64194;51.044;13.780;2022-10-17T17:19:16;101159.69;;;18.73;65.58
75609;BME280;64194;51.044;13.780;2022-10-17T17:23:18;101157.50;;;18.67;65.88
75609;BME280;64194;51.044;13.780;2022-10-17T17:27:19;101162.88;;;18.67;65.65
75609;BME280;64194;51.044;13.780;2022-10-17T17:31:29;101165.72;;;18.65;66.20
75609;BME280;64194;51.044;13.780;2022-10-17T17:35:34;101166.19;;;18.48;66.72
75609;BME280;64194;51.044;13.780;2022-10-17T17:39:39;101168.25;;;18.45;66.80
75609;BME280;64194;51.044;13.780;2022-10-17T17:43:42;101166.06;;;18.38;66.99
75609;BME280;64194;51.044;13.780;2022-10-17T17:47:44;101165.94;;;18.40;67.25
75609;BME280;64194;51.044;13.780;2022-10-17T17:51:46;101175.72;;;18.30;67.77
75609;BME280;64194;51.044;13.780;2022-10-17T17:56:02;101168.16;;;18.35;67.38
75609;BME280;64194;51.044;13.780;2022-10-17T18:00:07;101173.63;;;18.22;67.72
75609;BME280;64194;51.044;13.780;2022-10-17T18:04:10;101173.88;;;18.19;67.96
75609;BME280;64194;51.044;13.780;2022-10-17T18:08:47;101168.78;;;18.16;68.21
75609;BME280;64194;51.044;13.780;2022-10-17T18:12:53;101168.63;;;18.07;68.45
75609;BME280;64194;51.044;13.780;2022-10-17T18:16:56;101158.72;;;18.07;68.63
75609;BME280;64194;51.044;13.780;2022-10-17T18:21:00;101156.78;;;18.09;68.11
75609;BME280;64194;51.044;13.780;2022-10-17T18:25:01;101159.69;;;18.06;68.48
75609;BME280;64194;51.044;13.780;2022-10-17T18:29:04;101159.84;;;18.05;68.49
75609;BME280;64194;51.044;13.780;2022-10-17T18:33:09;101168.00;;;17.92;69.07
75609;BME280;64194;51.044;13.780;2022-10-17T18:37:11;101163.34;;;17.83;69.24
75609;BME280;64194;51.044;13.780;2022-10-17T18:41:16;101160.63;;;17.72;69.76
75609;BME280;64194;51.044;13.780;2022-10-17T18:45:18;101163.16;;;17.62;70.40
75609;BME280;64194;51.044;13.780;2022-10-17T18:49:20;101165.56;;;17.54;70.67
75609;BME280;64194;51.044;13.780;2022-10-17T18:53:26;101161.97;;;17.42;70.96
75609;BME280;64194;51.044;13.780;2022-10-17T18:57:28;101169.13;;;17.31;71.38
75609;BME280;64194;51.044;13.780;2022-10-17T19:01:30;101165.59;;;17.30;71.81
75609;BME280;64194;51.044;13.780;2022-10-17T19:05:32;101166.69;;;17.28;71.88
75609;BME280;64194;51.044;13.780;2022-10-17T19:09:35;101157.22;;;17.11;72.51
75609;BME280;64194;51.044;13.780;2022-10-17T19:13:36;101162.81;;;17.08;72.52
75609;BME280;64194;51.044;13.780;2022-10-17T19:17:38;101168.41;;;17.05;72.63
75609;BME280;64194;51.044;13.780;2022-10-17T19:21:40;101167.78;;;17.01;72.84
75609;BME280;64194;51.044;13.780;2022-10-17T19:25:42;101163.75;;;16.96;73.01
75609;BME280;64194;51.044;13.780;2022-10-17T19:29:44;101170.94;;;16.95;72.92
75609;BME280;64194;51.044;13.780;2022-10-17T19:33:46;101172.09;;;16.91;73.31
75609;BME280;64194;51.044;13.780;2022-10-17T19:37:49;101180.09;;;16.80;73.63
75609;BME280;64194;51.044;13.780;2022-10-17T19:41:51;101174.34;;;16.73;74.39
75609;BME280;64194;51.044;13.780;2022-10-17T19:46:00;101175.75;;;16.66;74.11
75609;BME280;64194;51.044;13.780;2022-10-17T19:50:03;101179.63;;;16.62;74.33
75609;BME280;64194;51.044;13.780;2022-10-17T19:54:08;101189.91;;;16.56;74.46
75609;BME280;64194;51.044;13.780;2022-10-17T19:58:10;101198.47;;;16.48;74.89
75609;BME280;64194;51.044;13.780;2022-10-17T20:02:12;101195.59;;;16.39;75.33
75609;BME280;64194;51.044;13.780;2022-10-17T20:06:15;101205.72;;;16.35;75.54
75609;BME280;64194;51.044;13.780;2022-10-17T20:10:24;101205.03;;;16.31;75.39
75609;BME280;64194;51.044;13.780;2022-10-17T20:14:26;101207.19;;;16.26;75.66
75609;BME280;64194;51.044;13.780;2022-10-17T20:18:28;101203.56;;;16.27;75.63
75609;BME280;64194;51.044;13.780;2022-10-17T20:22:29;101217.06;;;16.26;75.89
75609;BME280;64194;51.044;13.780;2022-10-17T20:26:32;101221.16;;;16.19;75.94
75609;BME280;64194;51.044;13.780;2022-10-17T20:30:44;101219.84;;;16.12;76.47
75609;BME280;64194;51.044;13.780;2022-10-17T20:34:46;101225.31;;;16.10;76.36
75609;BME280;64194;51.044;13.780;2022-10-17T20:38:55;101217.06;;;16.01;77.09
75609;BME280;64194;51.044;13.780;2022-10-17T20:42:57;101225.75;;;15.92;77.24
75609;BME280;64194;51.044;13.780;2022-10-17T20:46:58;101225.75;;;15.92;77.32
75609;BME280;64194;51.044;13.780;2022-10-17T20:51:07;101233.97;;;15.88;77.56
75609;BME280;64194;51.044;13.780;2022-10-17T20:55:09;101245.78;;;15.86;77.96
75609;BME280;64194;51.044;13.780;2022-10-17T20:59:14;101244.06;;;15.85;77.71
75609;BME280;64194;51.044;13.780;2022-10-17T21:03:16;101245.09;;;15.82;77.72
75609;BME280;64194;51.044;13.780;2022-10-17T21:07:18;101241.69;;;15.80;78.18
75609;BME280;64194;51.044;13.780;2022-10-17T21:11:23;101240.75;;;15.81;78.33
75609;BME280;64194;51.044;13.780;2022-10-17T21:15:25;101232.47;;;15.84;78.14
75609;BME280;64194;51.044;13.780;2022-10-17T21:19:27;101226.50;;;15.81;78.07
75609;BME280;64194;51.044;13.780;2022-10-17T21:23:29;101232.47;;;15.84;78.00
75609;BME280;64194;51.044;13.780;2022-10-17T21:27:30;101235.66;;;15.77;78.45
75609;BME280;64194;51.044;13.780;2022-10-17T21:31:37;101236.66;;;15.76;78.78
75609;BME280;64194;51.044;13.780;2022-10-17T21:35:39;101228.81;;;15.73;78.68
75609;BME280;64194;51.044;13.780;2022-10-17T21:39:40;101224.31;;;15.73;78.62
75609;BME280;64194;51.044;13.780;2022-10-17T21:43:42;101225.28;;;15.72;78.46
75609;BME280;64194;51.044;13.780;2022-10-17T21:47:44;101230.03;;;15.81;78.18
75609;BME280;64194;51.044;13.780;2022-10-17T21:52:05;101242.75;;;15.78;78.26
75609;BME280;64194;51.044;13.780;2022-10-17T21:56:14;101227.41;;;15.67;79.07
75609;BME280;64194;51.044;13.780;2022-10-17T22:00:16;101227.97;;;15.72;78.84
75609;BME280;64194;51.044;13.780;2022-10-17T22:04:18;101233.09;;;15.63;79.10
75609;BME280;64194;51.044;13.780;2022-10-17T22:08:20;101252.75;;;15.49;79.75
75609;BME280;64194;51.044;13.780;2022-10-17T22:12:21;101253.56;;;15.49;79.61
75609;BME280;64194;51.044;13.780;2022-10-17T22:16:23;101252.75;;;15.49;79.31
75609;BME280;64194;51.044;13.780;2022-10-17T22:20:25;101246.41;;;15.50;79.44